Terminal Aerodrome Forecast
Issued by NWS Charleston, WV

Current Version | Previous Version | Graphics & Text | Print | Product List | Glossary On
Versions: 1 2 3 4 5 6 7 8 9 10 11 12 13 14 15 16 17 18 19 20 21 22
000
FTUS41 KRLX 081724
TAFCRW
TAF
KCRW 081724Z 0818/0918 27003KT P6SM BKN024 OVC200
     FM082000 27003KT P6SM OVC200
     FM090700 00000KT P6SM SCT120
     FM091500 22006KT P6SM FEW150=

USA.gov is the U.S. government's official web portal to all federal, state and local government web resources and services.